Time;durP1;ratioP1;P1;durP2;ratioP2;P2;SDS_P1;SDS_P2;PMS_P1;PMS_P2;Temp;Humidity;BMP_temperature;BMP_pressure;BME280_temperature;BME280_humidity;BME280_pressure;Samples;Min_cycle;Max_cycle;Signal;HPM_P1;HPM_P2
2022/05/03 00:00:25;;;;;;;;;;;14.50;99.90;;;;;;5074337;28;19911;-78
2022/05/03 00:03:15;;;;;;;;;;;14.50;99.90;;;;;;5074151;28;20035;-79
2022/05/03 00:05:41;;;;;;;;;;;14.50;99.90;;;;;;5074343;28;19948;-79
2022/05/03 00:08:09;;;;;;;;;;;14.30;99.90;;;;;;5074088;28;19911;-78
2022/05/03 00:10:53;;;;;;;;;;;14.30;99.90;;;;;;5073999;28;19904;-78
2022/05/03 00:13:22;;;;;;;;;;;14.30;99.90;;;;;;5074463;28;20380;-78
2022/05/03 00:15:48;;;;;;;;;;;14.40;99.90;;;;;;5074299;28;19904;-78
2022/05/03 00:18:14;;;;;;;;;;;14.40;99.90;;;;;;5073916;28;20038;-79
2022/05/03 00:20:40;;;;;;;;;;;14.40;99.90;;;;;;5055895;28;19943;-79
2022/05/03 00:23:07;;;;;;;;;;;14.50;99.90;;;;;;5073908;28;19905;-79
2022/05/03 00:25:33;;;;;;;;;;;14.50;99.90;;;;;;5074216;28;19932;-79
2022/05/03 00:27:59;;;;;;;;;;;14.60;99.90;;;;;;5055852;28;19988;-79
2022/05/03 00:30:24;;;;;;;;;;;14.50;99.90;;;;;;5073785;28;19905;-79
2022/05/03 00:32:51;;;;;;;;;;;14.40;99.90;;;;;;5073742;28;19904;-80
2022/05/03 00:35:17;;;;;;;;;;;14.40;99.90;;;;;;5074097;28;20049;-78
2022/05/03 00:37:43;;;;;;;;;;;14.30;99.90;;;;;;5073096;28;19960;-80
2022/05/03 00:40:10;;;;;;;;;;;14.40;99.90;;;;;;5073864;28;19911;-80
2022/05/03 00:42:45;;;;;;;;;;;14.30;99.90;;;;;;5073649;28;20010;-79
2022/05/03 00:45:17;;;;;;;;;;;14.40;99.90;;;;;;5074163;28;19999;-79
2022/05/03 00:47:51;;;;;;;;;;;14.40;99.90;;;;;;5055623;28;19905;-78
2022/05/03 00:50:29;;;;;;;;;;;14.50;99.90;;;;;;5073679;28;19905;-78
2022/05/03 00:53:01;;;;;;;;;;;14.50;99.90;;;;;;5055528;28;20365;-80
2022/05/03 00:55:30;;;;;;;;;;;14.40;99.90;;;;;;5073535;28;20326;-78
2022/05/03 00:58:07;;;;;;;;;;;14.40;99.90;;;;;;5073524;28;19969;-78
2022/05/03 01:00:36;;;;;;;;;;;14.40;99.90;;;;;;5073722;28;19905;-78
2022/05/03 01:03:20;;;;;;;;;;;14.30;99.90;;;;;;5072726;28;19912;-78
2022/05/03 01:05:52;;;;;;;;;;;14.40;99.90;;;;;;5073861;28;19970;-80
2022/05/03 01:08:38;;;;;;;;;;;14.50;99.90;;;;;;5073730;28;19904;-78
2022/05/03 01:11:06;;;;;;;;;;;14.50;99.90;;;;;;5052499;28;20360;-80
2022/05/03 01:13:40;;;;;;;;;;;14.30;99.90;;;;;;5073721;28;19908;-79
2022/05/03 01:16:16;;;;;;;;;;;14.40;99.90;;;;;;5073444;28;20364;-79
2022/05/03 01:19:00;;;;;;;;;;;14.40;99.90;;;;;;5073609;28;19973;-79
2022/05/03 01:21:45;;;;;;;;;;;14.40;99.90;;;;;;5073423;28;20007;-78
2022/05/03 01:24:21;;;;;;;;;;;14.40;99.90;;;;;;5073278;28;20257;-78
2022/05/03 01:27:05;;;;;;;;;;;14.40;99.90;;;;;;5073315;28;19908;-79
2022/05/03 01:29:32;;;;;;;;;;;14.20;99.90;;;;;;5055215;28;19950;-79
2022/05/03 01:32:01;;;;;;;;;;;14.20;99.90;;;;;;5073202;28;20284;-78
2022/05/03 01:34:28;;;;;;;;;;;14.20;99.90;;;;;;5055193;28;19909;-78
2022/05/03 01:36:59;;;;;;;;;;;14.20;99.90;;;;;;5054986;28;19912;-79
2022/05/03 01:39:28;;;;;;;;;;;14.20;99.90;;;;;;5055148;28;19999;-78
2022/05/03 01:41:56;;;;;;;;;;;14.20;99.90;;;;;;5073042;28;19912;-78
2022/05/03 01:44:49;;;;;;;;;;;14.10;99.90;;;;;;5073168;28;19905;-79
2022/05/03 01:47:31;;;;;;;;;;;14.30;99.90;;;;;;5073056;28;19912;-80
2022/05/03 01:50:21;;;;;;;;;;;14.20;99.90;;;;;;5075544;28;19904;-78
2022/05/03 01:53:05;;;;;;;;;;;14.20;99.90;;;;;;5058740;28;19905;-78
2022/05/03 01:55:30;;;;;;;;;;;14.30;99.90;;;;;;5058684;28;19912;-79
2022/05/03 01:58:03;;;;;;;;;;;14.30;99.90;;;;;;5076601;28;19905;-79
2022/05/03 02:00:31;;;;;;;;;;;14.30;99.90;;;;;;5058562;28;19910;-79
2022/05/03 02:03:02;;;;;;;;;;;14.20;99.90;;;;;;5076388;28;19931;-77
2022/05/03 02:05:31;;;;;;;;;;;14.30;99.90;;;;;;5058298;28;19940;-79
2022/05/03 02:07:57;;;;;;;;;;;14.20;99.90;;;;;;5076399;28;20399;-78
2022/05/03 02:10:29;;;;;;;;;;;14.20;99.90;;;;;;5058306;28;19911;-78
2022/05/03 02:13:02;;;;;;;;;;;14.20;99.90;;;;;;5076296;28;19908;-79
2022/05/03 02:15:43;;;;;;;;;;;14.20;99.90;;;;;;5076303;28;19904;-78
2022/05/03 02:18:23;;;;;;;;;;;14.10;99.90;;;;;;5058181;28;20357;-80
2022/05/03 02:20:48;;;;;;;;;;;14.10;99.90;;;;;;5076285;28;19904;-79
2022/05/03 02:23:32;;;;;;;;;;;14.20;99.90;;;;;;5076154;28;19954;-79
2022/05/03 02:25:58;;;;;;;;;;;14.00;99.90;;;;;;5076424;28;20331;-79
2022/05/03 02:28:33;;;;;;;;;;;14.10;99.90;;;;;;5076201;28;19904;-78
2022/05/03 02:31:00;;;;;;;;;;;14.00;99.90;;;;;;5076004;28;19905;-77
2022/05/03 02:33:28;;;;;;;;;;;14.00;99.90;;;;;;5075929;28;19908;-78
2022/05/03 02:35:57;;;;;;;;;;;14.00;99.90;;;;;;5076109;28;19904;-79
2022/05/03 02:38:42;;;;;;;;;;;14.00;99.90;;;;;;5075545;28;20300;-78
2022/05/03 02:41:10;;;;;;;;;;;13.90;99.90;;;;;;5057713;28;19908;-78
2022/05/03 02:43:36;;;;;;;;;;;13.90;99.90;;;;;;5075786;28;20430;-80
2022/05/03 02:46:05;;;;;;;;;;;14.00;99.90;;;;;;5057759;28;19916;-77
2022/05/03 02:48:40;;;;;;;;;;;13.90;99.90;;;;;;5075669;28;20322;-78
2022/05/03 02:51:07;;;;;;;;;;;14.00;99.90;;;;;;5075740;28;19904;-80
2022/05/03 02:54:02;;;;;;;;;;;14.20;99.90;;;;;;5075550;28;19991;-79
2022/05/03 02:56:41;;;;;;;;;;;14.00;99.90;;;;;;5049901;28;20042;-80
2022/05/03 02:59:09;;;;;;;;;;;13.90;99.90;;;;;;5075539;28;19904;-78
2022/05/03 03:01:54;;;;;;;;;;;14.00;99.90;;;;;;5075134;28;20412;-80
2022/05/03 03:04:20;;;;;;;;;;;13.90;99.90;;;;;;5075371;28;20261;-77
2022/05/03 03:06:46;;;;;;;;;;;14.00;99.90;;;;;;5075304;28;19912;-79
2022/05/03 03:09:24;;;;;;;;;;;14.00;99.90;;;;;;5075259;28;19915;-79
2022/05/03 03:11:55;;;;;;;;;;;14.00;99.90;;;;;;5075351;28;19904;-79
2022/05/03 03:14:21;;;;;;;;;;;14.10;99.90;;;;;;5075315;28;19909;-79
2022/05/03 03:16:55;;;;;;;;;;;14.00;99.90;;;;;;5057181;28;19912;-78
2022/05/03 03:19:33;;;;;;;;;;;14.00;99.90;;;;;;5075087;28;19949;-78
2022/05/03 03:22:00;;;;;;;;;;;13.90;99.90;;;;;;5057011;28;20066;-79
2022/05/03 03:24:27;;;;;;;;;;;13.90;99.90;;;;;;5057022;28;19904;-79
2022/05/03 03:26:54;;;;;;;;;;;13.90;99.90;;;;;;5074877;28;19912;-80
2022/05/03 03:29:22;;;;;;;;;;;13.90;99.90;;;;;;5074814;28;19904;-77
2022/05/03 03:31:48;;;;;;;;;;;13.90;99.90;;;;;;5074774;28;19904;-78
2022/05/03 03:34:14;;;;;;;;;;;14.00;99.90;;;;;;5074792;28;20338;-79
2022/05/03 03:36:41;;;;;;;;;;;13.90;99.90;;;;;;5056578;28;19905;-80
2022/05/03 03:39:07;;;;;;;;;;;13.70;99.90;;;;;;5074702;28;19912;-76
2022/05/03 03:41:33;;;;;;;;;;;13.60;99.90;;;;;;5056616;28;20328;-78
2022/05/03 03:43:58;;;;;;;;;;;13.80;99.90;;;;;;5074560;28;19947;-79
2022/05/03 03:46:24;;;;;;;;;;;13.70;99.90;;;;;;5074611;28;19908;-79
2022/05/03 03:48:49;;;;;;;;;;;13.80;99.90;;;;;;5074485;28;19904;-78
2022/05/03 03:51:15;;;;;;;;;;;13.90;99.90;;;;;;5074787;28;19905;-80
2022/05/03 03:53:41;;;;;;;;;;;14.00;99.90;;;;;;5074381;28;19973;-79
2022/05/03 03:56:07;;;;;;;;;;;14.00;99.90;;;;;;5074377;28;19911;-79
2022/05/03 03:58:33;;;;;;;;;;;13.90;99.90;;;;;;5074308;28;19904;-80
2022/05/03 04:00:59;;;;;;;;;;;13.80;99.90;;;;;;5074179;28;20364;-78
2022/05/03 04:03:25;;;;;;;;;;;13.80;99.90;;;;;;5074323;28;19912;-78
2022/05/03 04:05:51;;;;;;;;;;;14.00;99.90;;;;;;5056597;28;20335;-80
2022/05/03 04:08:17;;;;;;;;;;;13.80;99.90;;;;;;5074230;28;19904;-79
2022/05/03 04:10:43;;;;;;;;;;;13.80;99.90;;;;;;5074045;28;19934;-80
2022/05/03 04:13:12;;;;;;;;;;;13.60;99.90;;;;;;5073730;28;19954;-78
2022/05/03 04:15:38;;;;;;;;;;;13.70;99.90;;;;;;5074005;28;19904;-78
2022/05/03 04:18:06;;;;;;;;;;;13.60;99.90;;;;;;5056003;28;19958;-78
2022/05/03 04:20:33;;;;;;;;;;;13.60;99.90;;;;;;5074189;28;19904;-78
2022/05/03 04:22:58;;;;;;;;;;;13.70;99.90;;;;;;5073847;28;19966;-78
2022/05/03 04:25:24;;;;;;;;;;;13.70;99.90;;;;;;5074161;28;20361;-77
2022/05/03 04:27:49;;;;;;;;;;;13.70;99.90;;;;;;5073898;28;19919;-79
2022/05/03 04:30:15;;;;;;;;;;;13.70;99.90;;;;;;5073835;28;20413;-77
2022/05/03 04:32:41;;;;;;;;;;;13.50;99.90;;;;;;5073792;28;19908;-79
2022/05/03 04:35:07;;;;;;;;;;;13.50;99.90;;;;;;5073801;28;19983;-77
2022/05/03 04:37:32;;;;;;;;;;;13.50;99.90;;;;;;5073674;28;19955;-79
2022/05/03 04:39:58;;;;;;;;;;;13.50;99.90;;;;;;5073814;28;19904;-78
2022/05/03 04:42:23;;;;;;;;;;;13.70;99.90;;;;;;5073615;28;19908;-80
2022/05/03 04:44:49;;;;;;;;;;;13.70;99.90;;;;;;5074071;28;19905;-78
2022/05/03 04:47:14;;;;;;;;;;;13.60;99.90;;;;;;5055707;28;19935;-78
2022/05/03 04:49:40;;;;;;;;;;;13.50;99.90;;;;;;5073748;28;20375;-79
2022/05/03 04:52:06;;;;;;;;;;;13.50;99.90;;;;;;5073755;28;19950;-77
2022/05/03 04:54:31;;;;;;;;;;;13.50;99.90;;;;;;5073670;28;19908;-77
2022/05/03 04:57:00;;;;;;;;;;;13.40;99.90;;;;;;5073577;28;19958;-79
2022/05/03 04:59:26;;;;;;;;;;;13.50;99.90;;;;;;5055871;28;19906;-78
2022/05/03 05:01:51;;;;;;;;;;;13.50;99.90;;;;;;5055439;28;20010;-77
2022/05/03 05:04:17;;;;;;;;;;;13.40;99.90;;;;;;5073509;28;19912;-78
2022/05/03 05:06:43;;;;;;;;;;;13.50;99.90;;;;;;5073443;28;19912;-78
2022/05/03 05:09:08;;;;;;;;;;;13.50;99.90;;;;;;5073795;28;20364;-78
2022/05/03 05:11:34;;;;;;;;;;;13.50;99.90;;;;;;5073334;28;19905;-78
2022/05/03 05:14:00;;;;;;;;;;;13.50;99.90;;;;;;5073466;28;19904;-79
2022/05/03 05:16:25;;;;;;;;;;;13.40;99.90;;;;;;5055382;28;20368;-79
2022/05/03 05:18:51;;;;;;;;;;;13.60;99.90;;;;;;5073388;28;19958;-80
2022/05/03 05:21:16;;;;;;;;;;;13.70;99.90;;;;;;5073308;28;20124;-79
2022/05/03 05:23:42;;;;;;;;;;;13.70;99.90;;;;;;5057166;28;19904;-78
2022/05/03 05:26:07;;;;;;;;;;;13.80;99.90;;;;;;5077198;28;20003;-77
2022/05/03 05:28:33;;;;;;;;;;;13.70;99.90;;;;;;5077026;28;19909;-79
2022/05/03 05:30:59;;;;;;;;;;;13.90;99.90;;;;;;5077411;28;20323;-78
2022/05/03 05:33:24;;;;;;;;;;;13.80;99.90;;;;;;5077318;28;20384;-79
2022/05/03 05:35:50;;;;;;;;;;;14.00;99.90;;;;;;5076788;28;19954;-79
2022/05/03 05:38:17;;;;;;;;;;;14.10;99.90;;;;;;5076659;28;20388;-79
2022/05/03 05:40:46;;;;;;;;;;;14.10;99.90;;;;;;5058930;28;19912;-79
2022/05/03 05:43:13;;;;;;;;;;;14.20;99.90;;;;;;5058855;28;19937;-79
2022/05/03 05:45:38;;;;;;;;;;;14.30;99.90;;;;;;5076856;28;19908;-79
2022/05/03 05:48:05;;;;;;;;;;;14.30;99.90;;;;;;5058843;28;19908;-80
2022/05/03 05:50:30;;;;;;;;;;;14.40;99.90;;;;;;5076690;28;19916;-78
2022/05/03 05:55:42;;;;;;;;;;;14.60;99.90;;;;;;5076518;28;19978;-78
2022/05/03 05:58:08;;;;;;;;;;;14.70;99.90;;;;;;5076556;28;19905;-79
2022/05/03 06:00:34;;;;;;;;;;;14.60;99.90;;;;;;5076559;28;19910;-78
2022/05/03 06:03:00;;;;;;;;;;;14.70;99.90;;;;;;5076408;28;20292;-77
2022/05/03 06:05:25;;;;;;;;;;;14.80;99.90;;;;;;5076768;28;19912;-79
2022/05/03 06:07:52;;;;;;;;;;;14.90;99.90;;;;;;5076446;28;19908;-79
2022/05/03 06:10:18;;;;;;;;;;;15.00;99.90;;;;;;5076356;28;19939;-79
2022/05/03 06:12:44;;;;;;;;;;;14.80;99.90;;;;;;5058371;28;19911;-79
2022/05/03 06:15:10;;;;;;;;;;;14.90;99.90;;;;;;5076521;28;20268;-80
2022/05/03 06:17:35;;;;;;;;;;;15.20;99.90;;;;;;5076566;28;19922;-79
2022/05/03 06:20:01;;;;;;;;;;;15.30;99.90;;;;;;5076270;28;19908;-77
2022/05/03 06:22:27;;;;;;;;;;;15.20;99.90;;;;;;5076235;28;19908;-79
2022/05/03 06:24:53;;;;;;;;;;;15.30;99.90;;;;;;5076127;28;19904;-78
2022/05/03 06:27:18;;;;;;;;;;;15.20;99.90;;;;;;5076109;28;19985;-78
2022/05/03 06:29:44;;;;;;;;;;;15.20;99.90;;;;;;5076309;28;19911;-78
2022/05/03 06:32:13;;;;;;;;;;;15.10;99.90;;;;;;5076021;28;19905;-77
2022/05/03 06:34:38;;;;;;;;;;;15.20;99.90;;;;;;5075178;28;20035;-78
2022/05/03 06:37:04;;;;;;;;;;;15.20;99.90;;;;;;5075730;28;19952;-78
2022/05/03 06:39:30;;;;;;;;;;;15.20;99.90;;;;;;5076071;28;19908;-76
2022/05/03 06:41:56;;;;;;;;;;;15.40;99.90;;;;;;5075872;28;20253;-78
2022/05/03 06:44:22;;;;;;;;;;;15.30;99.90;;;;;;5057806;28;19908;-78
2022/05/03 06:46:49;;;;;;;;;;;15.30;99.90;;;;;;5075811;28;19911;-78
2022/05/03 06:49:14;;;;;;;;;;;15.50;99.90;;;;;;5075684;28;20360;-79
2022/05/03 06:51:40;;;;;;;;;;;15.50;99.90;;;;;;5075652;28;19911;-78
2022/05/03 06:54:06;;;;;;;;;;;15.50;99.90;;;;;;5075656;28;19904;-77
2022/05/03 06:56:35;;;;;;;;;;;15.60;99.90;;;;;;5075676;28;19908;-76
2022/05/03 06:59:02;;;;;;;;;;;15.70;99.90;;;;;;5075512;28;19905;-79
2022/05/03 07:01:28;;;;;;;;;;;15.80;99.90;;;;;;5075816;28;20323;-79
2022/05/03 07:03:53;;;;;;;;;;;15.80;99.90;;;;;;5075609;28;19904;-78
2022/05/03 07:06:21;;;;;;;;;;;15.90;99.90;;;;;;5075494;28;19905;-77
2022/05/03 07:08:47;;;;;;;;;;;15.70;99.90;;;;;;5075321;28;19908;-78
2022/05/03 07:11:21;;;;;;;;;;;15.80;99.90;;;;;;5075438;28;19908;-79
2022/05/03 07:13:53;;;;;;;;;;;15.70;99.90;;;;;;5073677;28;19954;-78
2022/05/03 07:16:19;;;;;;;;;;;16.00;99.90;;;;;;5058026;28;19934;-78
2022/05/03 07:24:16;;;;;;;;;;;16.40;99.90;;;;;;5075369;28;19911;-77
2022/05/03 07:26:45;;;;;;;;;;;16.60;99.90;;;;;;5075296;28;19909;-79
2022/05/03 07:29:11;;;;;;;;;;;16.70;99.90;;;;;;5056987;28;19958;-80
2022/05/03 07:31:41;;;;;;;;;;;16.80;99.90;;;;;;5074862;28;19908;-78
2022/05/03 07:34:07;;;;;;;;;;;16.90;99.90;;;;;;5074813;28;19904;-78
2022/05/03 07:36:33;;;;;;;;;;;16.80;99.90;;;;;;5074643;28;19904;-80
2022/05/03 07:38:59;;;;;;;;;;;16.90;99.90;;;;;;5075354;28;19904;-79
2022/05/03 07:41:24;;;;;;;;;;;17.00;99.90;;;;;;5074643;28;19909;-79
2022/05/03 07:43:50;;;;;;;;;;;16.80;99.90;;;;;;5056741;28;19957;-80
2022/05/03 07:46:16;;;;;;;;;;;16.90;99.90;;;;;;5074816;28;19911;-77
2022/05/03 07:48:41;;;;;;;;;;;16.90;99.90;;;;;;5074527;28;20474;-80
2022/05/03 07:51:10;;;;;;;;;;;17.00;99.90;;;;;;5056374;28;19904;-80
2022/05/03 07:53:36;;;;;;;;;;;17.00;99.90;;;;;;5074413;28;19999;-80
2022/05/03 07:56:01;;;;;;;;;;;16.90;99.90;;;;;;5074644;28;19966;-80
2022/05/03 07:58:28;;;;;;;;;;;16.90;99.90;;;;;;5074395;28;19905;-77
2022/05/03 08:00:53;;;;;;;;;;;16.80;99.90;;;;;;5074608;28;19904;-79
2022/05/03 08:03:20;;;;;;;;;;;16.80;99.90;;;;;;5074177;28;20296;-79
2022/05/03 08:05:45;;;;;;;;;;;16.90;99.90;;;;;;5056223;28;20005;-77
2022/05/03 08:08:11;;;;;;;;;;;17.00;99.90;;;;;;5074273;28;20372;-78
2022/05/03 08:10:36;;;;;;;;;;;16.90;99.90;;;;;;5074003;28;19904;-78
2022/05/03 08:13:02;;;;;;;;;;;16.80;99.90;;;;;;5056221;28;19904;-79
2022/05/03 08:15:28;;;;;;;;;;;16.80;99.90;;;;;;5074599;28;19942;-78
2022/05/03 08:17:53;;;;;;;;;;;17.00;99.90;;;;;;5073993;28;19958;-78
2022/05/03 08:20:19;;;;;;;;;;;17.00;99.90;;;;;;5073996;28;20357;-80
2022/05/03 08:22:44;;;;;;;;;;;17.20;99.90;;;;;;5074020;28;20071;-81
2022/05/03 08:25:10;;;;;;;;;;;17.40;99.90;;;;;;5074083;28;19908;-79
2022/05/03 08:27:37;;;;;;;;;;;17.50;99.90;;;;;;5073863;28;19912;-80
2022/05/03 08:30:03;;;;;;;;;;;17.50;99.90;;;;;;5073803;28;20364;-78
2022/05/03 08:32:29;;;;;;;;;;;17.50;99.90;;;;;;5074040;28;19905;-79
2022/05/03 08:34:55;;;;;;;;;;;17.70;99.90;;;;;;5073772;28;20358;-79
2022/05/03 08:42:48;;;;;;;;;;;17.70;99.90;;;;;;5073446;28;20387;-78
2022/05/03 08:45:14;;;;;;;;;;;17.60;99.90;;;;;;5073687;28;19905;-79
2022/05/03 08:47:41;;;;;;;;;;;17.80;99.90;;;;;;5074250;28;19991;-77
2022/05/03 08:50:07;;;;;;;;;;;17.90;99.90;;;;;;5073667;28;20257;-78
2022/05/03 08:52:33;;;;;;;;;;;18.10;99.90;;;;;;5073924;28;19918;-77
2022/05/03 08:55:00;;;;;;;;;;;17.80;99.90;;;;;;5073674;28;19931;-78
2022/05/03 08:57:26;;;;;;;;;;;17.70;99.90;;;;;;5074104;28;19987;-80
2022/05/03 08:59:52;;;;;;;;;;;17.90;99.90;;;;;;5062143;28;20391;-78
2022/05/03 09:02:18;;;;;;;;;;;17.80;99.90;;;;;;5080151;28;20012;-79
2022/05/03 09:04:43;;;;;;;;;;;18.10;99.90;;;;;;5080707;28;19947;-81
2022/05/03 09:07:20;;;;;;;;;;;18.30;98.00;;;;;;5080114;28;19954;-80
2022/05/03 09:09:46;;;;;;;;;;;18.20;97.60;;;;;;5080087;28;20249;-78
2022/05/03 09:12:25;;;;;;;;;;;18.30;98.40;;;;;;5080554;28;19908;-78
2022/05/03 09:14:51;;;;;;;;;;;18.60;97.10;;;;;;5079966;28;19908;-78
2022/05/03 09:17:33;;;;;;;;;;;18.80;97.20;;;;;;5080335;28;19926;-78
2022/05/03 09:19:58;;;;;;;;;;;18.80;97.00;;;;;;5080082;28;19912;-78
2022/05/03 09:25:12;;;;;;;;;;;19.20;96.00;;;;;;5080038;28;20315;-77
2022/05/03 09:27:38;;;;;;;;;;;19.50;94.80;;;;;;5079891;28;19930;-80
2022/05/03 09:30:08;;;;;;;;;;;19.50;94.10;;;;;;5079915;28;19908;-80
2022/05/03 09:32:45;;;;;;;;;;;19.70;94.00;;;;;;5079858;28;19931;-79
2022/05/03 09:35:29;;;;;;;;;;;19.90;92.20;;;;;;5079888;28;19909;-78
2022/05/03 09:37:54;;;;;;;;;;;19.80;91.90;;;;;;5079744;28;19920;-79
2022/05/03 09:40:20;;;;;;;;;;;20.20;91.00;;;;;;5079848;28;19977;-77
2022/05/03 09:42:53;;;;;;;;;;;20.50;90.30;;;;;;5079979;28;19915;-80
2022/05/03 09:45:23;;;;;;;;;;;20.30;85.90;;;;;;5080287;28;20371;-80
2022/05/03 09:47:52;;;;;;;;;;;20.50;86.90;;;;;;5080013;28;19927;-77
2022/05/03 09:50:44;;;;;;;;;;;20.60;82.20;;;;;;5061956;28;19904;-78
2022/05/03 09:53:15;;;;;;;;;;;20.90;81.60;;;;;;5074003;28;19905;-77
2022/05/03 09:55:42;;;;;;;;;;;21.30;77.90;;;;;;5080030;28;19904;-79
2022/05/03 09:58:10;;;;;;;;;;;21.40;76.80;;;;;;5079658;28;19947;-79
2022/05/03 10:00:38;;;;;;;;;;;22.00;73.20;;;;;;5079643;28;20398;-78
2022/05/03 10:03:04;;;;;;;;;;;22.70;71.90;;;;;;5079567;28;19909;-78
2022/05/03 10:05:30;;;;;;;;;;;23.30;69.20;;;;;;5080111;28;20297;-79
2022/05/03 10:07:56;;;;;;;;;;;23.70;65.90;;;;;;5079586;28;19911;-79
2022/05/03 10:10:24;;;;;;;;;;;24.10;65.00;;;;;;5076625;28;19904;-81
2022/05/03 10:12:50;;;;;;;;;;;25.10;63.20;;;;;;5076664;28;20353;-78
2022/05/03 10:20:57;;;;;;;;;;;27.00;56.50;;;;;;5076517;28;19930;-79
2022/05/03 10:23:24;;;;;;;;;;;28.90;52.40;;;;;;5058498;28;20418;-79
2022/05/03 10:25:53;;;;;;;;;;;29.20;49.70;;;;;;5076689;28;19904;-79
2022/05/03 10:28:19;;;;;;;;;;;30.50;48.70;;;;;;5076202;28;19904;-79
2022/05/03 10:31:04;;;;;;;;;;;31.50;46.70;;;;;;5076112;28;19930;-80
2022/05/03 10:33:29;;;;;;;;;;;33.80;44.40;;;;;;5076640;28;19904;-81
2022/05/03 10:35:55;;;;;;;;;;;35.10;41.10;;;;;;5076026;28;19934;-79
2022/05/03 10:38:38;;;;;;;;;;;35.30;39.70;;;;;;5057602;28;19940;-78
2022/05/03 10:41:05;;;;;;;;;;;34.30;40.50;;;;;;5075957;28;19908;-79
2022/05/03 10:43:33;;;;;;;;;;;35.00;39.10;;;;;;5075862;28;19939;-79
2022/05/03 10:46:08;;;;;;;;;;;34.30;39.60;;;;;;5075752;28;20305;-78
2022/05/03 10:48:35;;;;;;;;;;;35.70;39.30;;;;;;5060599;28;19952;-77
2022/05/03 10:51:03;;;;;;;;;;;35.90;38.90;;;;;;5060034;28;20372;-75
2022/05/03 10:53:32;;;;;;;;;;;35.50;38.30;;;;;;5065051;28;19904;-77
2022/05/03 10:56:06;;;;;;;;;;;35.70;36.20;;;;;;5046155;28;20296;-75
2022/05/03 10:58:36;;;;;;;;;;;35.70;38.50;;;;;;5066688;28;19908;-78
2022/05/03 11:01:02;;;;;;;;;;;35.90;37.60;;;;;;5063341;28;19947;-76
2022/05/03 11:03:28;;;;;;;;;;;36.40;38.10;;;;;;5067407;28;19998;-77
2022/05/03 11:06:13;;;;;;;;;;;35.90;37.40;;;;;;5066679;28;20051;-76
2022/05/03 11:09:08;;;;;;;;;;;34.80;38.40;;;;;;5031088;28;19919;-75
2022/05/03 11:11:43;;;;;;;;;;;34.90;38.80;;;;;;5063976;28;19905;-79
2022/05/03 11:14:21;;;;;;;;;;;35.10;38.60;;;;;;5047122;28;19912;-76
2022/05/03 11:17:05;;;;;;;;;;;34.80;37.30;;;;;;5046939;28;19920;-76
2022/05/03 11:19:32;;;;;;;;;;;34.90;37.20;;;;;;5067754;28;19944;-76
2022/05/03 11:21:58;;;;;;;;;;;36.80;36.20;;;;;;5065600;28;19923;-76
2022/05/03 11:24:25;;;;;;;;;;;38.30;36.50;;;;;;5046069;28;19905;-76
2022/05/03 11:26:52;;;;;;;;;;;38.60;34.80;;;;;;5064081;28;19904;-77
2022/05/03 11:29:18;;;;;;;;;;;39.00;34.30;;;;;;5062805;28;19912;-77
2022/05/03 11:31:47;;;;;;;;;;;39.00;33.20;;;;;;5063739;28;19990;-76
2022/05/03 11:34:13;;;;;;;;;;;40.10;32.90;;;;;;5063573;28;19911;-76
2022/05/03 11:36:41;;;;;;;;;;;40.40;33.60;;;;;;5062986;28;19904;-76
2022/05/03 11:39:08;;;;;;;;;;;40.30;33.60;;;;;;5065978;28;20282;-75
2022/05/03 11:41:36;;;;;;;;;;;39.40;33.10;;;;;;5074607;28;19908;-76
2022/05/03 11:44:01;;;;;;;;;;;39.00;33.40;;;;;;5074867;28;19905;-76
2022/05/03 11:46:27;;;;;;;;;;;40.60;33.80;;;;;;5074603;28;19904;-77
2022/05/03 11:48:53;;;;;;;;;;;41.30;33.20;;;;;;5074460;28;19905;-77
2022/05/03 11:57:03;;;;;;;;;;;40.30;32.10;;;;;;5074347;28;20008;-77
2022/05/03 11:59:29;;;;;;;;;;;39.70;33.70;;;;;;5074269;28;19952;-75
2022/05/03 12:02:13;;;;;;;;;;;39.70;33.00;;;;;;5074115;28;19916;-77
2022/05/03 12:04:55;;;;;;;;;;;38.20;32.50;;;;;;5056217;28;20284;-76
2022/05/03 12:07:21;;;;;;;;;;;37.60;33.60;;;;;;5074306;28;20356;-76
2022/05/03 12:09:46;;;;;;;;;;;36.90;34.60;;;;;;5074573;28;19931;-75
2022/05/03 12:15:13;;;;;;;;;;;36.70;34.50;;;;;;5074007;28;19967;-74
2022/05/03 12:17:56;;;;;;;;;;;36.20;34.20;;;;;;5074256;28;19995;-75
2022/05/03 12:20:22;;;;;;;;;;;36.70;33.70;;;;;;5074135;28;19905;-76
2022/05/03 12:23:08;;;;;;;;;;;37.50;33.70;;;;;;5074075;28;20291;-75
2022/05/03 12:25:34;;;;;;;;;;;37.30;33.10;;;;;;5073843;28;19950;-76
2022/05/03 12:28:03;;;;;;;;;;;38.10;32.70;;;;;;5074038;28;19904;-77
2022/05/03 12:30:29;;;;;;;;;;;38.90;31.80;;;;;;5073997;28;19905;-75
2022/05/03 12:32:54;;;;;;;;;;;35.60;33.00;;;;;;5073104;28;20285;-78
2022/05/03 12:35:30;;;;;;;;;;;32.20;35.20;;;;;;5073701;28;19908;-78
2022/05/03 12:37:56;;;;;;;;;;;30.70;37.70;;;;;;5073540;28;19970;-77
2022/05/03 12:40:26;;;;;;;;;;;30.60;38.00;;;;;;5073687;28;19912;-79
2022/05/03 12:42:51;;;;;;;;;;;30.20;39.00;;;;;;5073877;28;19915;-78
2022/05/03 12:45:20;;;;;;;;;;;30.00;39.30;;;;;;5073906;28;19904;-77
2022/05/03 12:47:48;;;;;;;;;;;29.30;39.10;;;;;;5073778;28;20343;-78
2022/05/03 12:50:14;;;;;;;;;;;28.30;40.50;;;;;;5055592;28;20314;-77
2022/05/03 12:52:40;;;;;;;;;;;28.60;41.00;;;;;;5073751;28;19958;-78
2022/05/03 12:55:06;;;;;;;;;;;28.60;41.40;;;;;;5073522;28;19955;-78
2022/05/03 13:00:15;;;;;;;;;;;27.00;43.00;;;;;;5073523;28;19958;-77
2022/05/03 13:02:41;;;;;;;;;;;26.20;43.60;;;;;;5074002;28;19909;-79
2022/05/03 13:05:06;;;;;;;;;;;25.40;44.80;;;;;;5073455;28;19905;-79
2022/05/03 13:07:33;;;;;;;;;;;25.20;45.30;;;;;;5073490;28;20002;-78
2022/05/03 13:09:58;;;;;;;;;;;24.70;46.70;;;;;;5055413;28;19946;-78
2022/05/03 13:12:24;;;;;;;;;;;24.40;47.50;;;;;;5073509;28;20283;-79
2022/05/03 13:14:49;;;;;;;;;;;24.00;48.40;;;;;;5055015;28;19904;-77
2022/05/03 13:17:15;;;;;;;;;;;23.40;49.60;;;;;;5073605;28;20375;-77
2022/05/03 13:19:41;;;;;;;;;;;23.30;49.50;;;;;;5073297;28;19905;-77
2022/05/03 13:22:06;;;;;;;;;;;23.10;48.60;;;;;;5073279;28;19993;-78
2022/05/03 13:24:32;;;;;;;;;;;22.60;49.10;;;;;;5073687;28;19947;-78
2022/05/03 13:26:58;;;;;;;;;;;22.40;49.00;;;;;;5073550;28;19911;-78
2022/05/03 13:29:24;;;;;;;;;;;22.80;48.10;;;;;;5073225;28;20360;-78
2022/05/03 13:31:50;;;;;;;;;;;22.80;47.30;;;;;;5073102;28;19947;-78
2022/05/03 13:34:15;;;;;;;;;;;22.60;48.20;;;;;;5055062;28;20292;-77
2022/05/03 13:42:10;;;;;;;;;;;22.90;48.10;;;;;;5072903;28;20394;-78
2022/05/03 13:44:37;;;;;;;;;;;23.00;48.40;;;;;;5056614;28;19904;-77
2022/05/03 13:47:04;;;;;;;;;;;23.30;48.30;;;;;;5077103;28;19904;-79
2022/05/03 13:49:29;;;;;;;;;;;23.60;48.00;;;;;;5058805;28;19931;-78
2022/05/03 13:51:55;;;;;;;;;;;23.70;47.40;;;;;;5076770;28;19904;-77
2022/05/03 13:54:21;;;;;;;;;;;23.90;47.20;;;;;;5076649;28;20352;-78
2022/05/03 13:56:47;;;;;;;;;;;23.70;47.80;;;;;;5077040;28;19905;-77
2022/05/03 13:59:13;;;;;;;;;;;23.70;47.90;;;;;;5076797;28;19911;-77
2022/05/03 14:01:39;;;;;;;;;;;23.70;48.80;;;;;;5076735;28;19908;-78
2022/05/03 14:04:05;;;;;;;;;;;24.20;47.60;;;;;;5076438;28;20383;-77
2022/05/03 14:06:31;;;;;;;;;;;24.60;46.10;;;;;;5076436;28;19904;-76
2022/05/03 14:08:57;;;;;;;;;;;24.90;45.60;;;;;;5076670;28;20040;-78
2022/05/03 14:11:23;;;;;;;;;;;25.00;45.00;;;;;;5076314;28;19909;-78
2022/05/03 14:13:48;;;;;;;;;;;24.80;45.00;;;;;;5076328;28;19904;-78
2022/05/03 14:16:16;;;;;;;;;;;25.30;45.80;;;;;;5076280;28;19950;-78
2022/05/03 14:18:42;;;;;;;;;;;25.70;45.30;;;;;;5076661;28;19909;-79
2022/05/03 14:21:08;;;;;;;;;;;25.50;45.90;;;;;;5076456;28;19905;-78
2022/05/03 14:23:34;;;;;;;;;;;26.10;44.80;;;;;;5076435;28;19908;-76
2022/05/03 14:26:00;;;;;;;;;;;26.30;44.40;;;;;;5076368;28;19970;-78
2022/05/03 14:28:29;;;;;;;;;;;26.50;44.90;;;;;;5076447;28;20370;-78
2022/05/03 14:30:54;;;;;;;;;;;25.60;45.20;;;;;;5076433;28;19908;-78
2022/05/03 14:33:20;;;;;;;;;;;25.20;46.30;;;;;;5076353;28;19911;-77
2022/05/03 14:35:46;;;;;;;;;;;25.50;47.00;;;;;;5076154;28;19904;-79
2022/05/03 14:38:11;;;;;;;;;;;25.90;46.20;;;;;;5075832;28;19916;-78
2022/05/03 14:40:37;;;;;;;;;;;26.00;45.90;;;;;;5075956;28;20300;-79
2022/05/03 14:43:06;;;;;;;;;;;26.40;45.60;;;;;;5076001;28;20011;-79
2022/05/03 14:45:32;;;;;;;;;;;25.70;44.30;;;;;;5075767;28;20442;-77
2022/05/03 14:47:58;;;;;;;;;;;25.50;44.60;;;;;;5075963;28;19905;-81
2022/05/03 14:50:24;;;;;;;;;;;25.60;45.30;;;;;;5057759;28;20311;-78
2022/05/03 14:52:50;;;;;;;;;;;25.50;44.60;;;;;;5075922;28;19904;-78
2022/05/03 14:55:15;;;;;;;;;;;25.80;43.80;;;;;;5075524;28;19904;-78
2022/05/03 15:03:09;;;;;;;;;;;28.40;42.20;;;;;;5076264;28;19961;-80
2022/05/03 15:05:36;;;;;;;;;;;27.60;42.20;;;;;;5075723;28;19904;-78
2022/05/03 15:08:03;;;;;;;;;;;27.30;42.60;;;;;;5075500;28;19995;-79